createdAt,value
2019-01-06T00:02:36.308Z,0.73
2019-01-06T00:05:24.040Z,0.85
2019-01-06T00:08:24.678Z,0.93
2019-01-06T00:11:20.550Z,1.27
2019-01-06T00:14:02.502Z,0.90
2019-01-06T00:16:49.062Z,1.30
2019-01-06T00:19:35.340Z,0.90
2019-01-06T00:22:20.925Z,0.97
2019-01-06T00:25:07.495Z,0.80
2019-01-06T00:27:53.889Z,1.07
2019-01-06T00:30:50.466Z,1.50
2019-01-06T00:33:34.222Z,1.30
2019-01-06T00:36:20.522Z,1.20
2019-01-06T00:38:56.433Z,1.53
2019-01-06T00:41:50.132Z,1.30
2019-01-06T00:44:45.767Z,2.00
2019-01-06T00:47:31.039Z,2.30
2019-01-06T00:50:17.276Z,2.37
2019-01-06T00:53:03.893Z,2.07
2019-01-06T00:55:45.930Z,1.33
2019-01-06T00:58:32.751Z,1.93
2019-01-06T01:01:15.979Z,1.77
2019-01-06T01:04:02.567Z,1.57
2019-01-06T01:06:49.090Z,0.73
2019-01-06T01:09:49.239Z,2.27
2019-01-06T01:12:42.612Z,2.50
2019-01-06T01:15:26.571Z,2.10
2019-01-06T01:18:12.933Z,2.30
2019-01-06T01:20:53.826Z,1.73
2019-01-06T01:23:41.618Z,2.37
2019-01-06T01:26:25.879Z,2.03
2019-01-06T01:29:15.417Z,2.40
2019-01-06T01:32:00.379Z,2.20
2019-01-06T01:35:00.738Z,2.37
2019-01-06T01:37:44.726Z,2.53
2019-01-06T01:40:31.179Z,2.40
2019-01-06T01:43:17.678Z,2.00
2019-01-06T01:46:06.536Z,2.47
2019-01-06T01:48:54.707Z,2.87
2019-01-06T01:51:37.259Z,3.00
2019-01-06T01:54:24.016Z,1.97
2019-01-06T01:57:14.831Z,2.93
2019-01-06T02:00:14.992Z,2.70
2019-01-06T02:02:56.009Z,2.77
2019-01-06T02:05:49.052Z,2.33
2019-01-06T02:08:33.331Z,2.57
2019-01-06T02:11:30.399Z,2.07
2019-01-06T02:14:13.064Z,3.07
2019-01-06T02:16:56.073Z,3.30
2019-01-06T02:19:41.686Z,3.10
2019-01-06T02:22:28.411Z,3.23
2019-01-06T02:25:12.029Z,3.17
2019-01-06T02:28:19.094Z,3.60
2019-01-06T02:30:59.496Z,2.87
2019-01-06T02:34:05.115Z,3.43
2019-01-06T02:37:05.003Z,2.80
2019-01-06T02:39:50.842Z,2.90
2019-01-06T02:42:37.450Z,3.53
2019-01-06T02:45:35.367Z,2.93
2019-01-06T02:48:23.753Z,3.10
2019-01-06T02:51:22.066Z,2.90
2019-01-06T02:54:13.443Z,3.13
2019-01-06T02:56:58.514Z,3.70
2019-01-06T02:59:46.522Z,2.97
2019-01-06T03:02:31.661Z,3.37
2019-01-06T03:05:18.162Z,3.83
2019-01-06T03:08:09.794Z,3.73
2019-01-06T03:10:59.258Z,2.83
2019-01-06T03:13:39.530Z,3.13
2019-01-06T03:16:25.759Z,3.70
2019-01-06T03:19:22.810Z,3.07
2019-01-06T03:22:18.530Z,2.73
2019-01-06T03:25:09.889Z,3.03
2019-01-06T03:28:00.511Z,3.37
2019-01-06T03:30:47.117Z,2.90
2019-01-06T03:33:33.930Z,3.37
2019-01-06T03:36:36.910Z,3.30
2019-01-06T03:39:25.490Z,3.73
2019-01-06T03:42:12.006Z,3.00
2019-01-06T03:44:58.306Z,3.27
2019-01-06T03:47:58.666Z,3.07
2019-01-06T03:50:49.899Z,3.03
2019-01-06T03:53:39.526Z,2.30
2019-01-06T03:56:30.844Z,2.57
2019-01-06T03:59:07.786Z,3.13
2019-01-06T04:01:51.470Z,2.63
2019-01-06T04:04:49.191Z,2.63
2019-01-06T04:07:43.300Z,2.87
2019-01-06T04:10:30.275Z,2.07
2019-01-06T04:13:23.076Z,2.87
2019-01-06T04:16:13.145Z,3.00
2019-01-06T04:18:59.367Z,3.03
2019-01-06T04:21:59.335Z,3.03
2019-01-06T04:24:45.266Z,3.00
2019-01-06T04:27:32.638Z,3.30
2019-01-06T04:30:38.907Z,2.77
2019-01-06T04:33:25.926Z,3.30
2019-01-06T04:36:13.838Z,2.70
2019-01-06T04:39:01.653Z,3.93
2019-01-06T04:41:48.278Z,3.33
2019-01-06T04:44:35.077Z,3.43
2019-01-06T04:47:32.438Z,3.23
2019-01-06T04:50:19.090Z,3.40
2019-01-06T04:53:03.150Z,2.90
2019-01-06T04:55:59.267Z,3.20
2019-01-06T04:58:37.684Z,3.63
2019-01-06T05:01:27.110Z,2.83
2019-01-06T05:04:16.801Z,3.50
2019-01-06T05:07:03.306Z,2.53
2019-01-06T05:09:53.221Z,2.17
2019-01-06T05:12:39.494Z,2.50
2019-01-06T05:15:26.006Z,2.83
2019-01-06T05:18:22.868Z,2.10
2019-01-06T05:21:25.541Z,2.63
2019-01-06T05:24:12.243Z,3.10
2019-01-06T05:27:00.307Z,3.07
2019-01-06T05:29:46.759Z,2.47
2019-01-06T05:32:34.307Z,2.77
2019-01-06T05:35:37.575Z,2.50
2019-01-06T05:38:21.086Z,3.05
2019-01-06T05:41:24.182Z,3.00
2019-01-06T05:44:11.958Z,2.87
2019-01-06T05:46:58.577Z,2.87
2019-01-06T05:49:45.658Z,3.70
2019-01-06T05:52:45.643Z,2.17
2019-01-06T05:55:29.246Z,1.80
2019-01-06T05:58:14.836Z,1.93
2019-01-06T06:01:02.382Z,2.87
2019-01-06T06:03:48.666Z,2.77
2019-01-06T06:06:28.122Z,3.03
2019-01-06T06:09:24.951Z,2.57
2019-01-06T06:12:09.855Z,2.75
2019-01-06T06:14:58.107Z,2.40
2019-01-06T06:17:40.912Z,2.30
2019-01-06T06:20:30.031Z,1.93
2019-01-06T06:23:34.144Z,2.87
2019-01-06T06:26:21.727Z,1.93
2019-01-06T06:29:08.570Z,2.40
2019-01-06T06:31:51.346Z,2.33
2019-01-06T06:34:38.015Z,2.07
2019-01-06T06:37:31.241Z,1.73
2019-01-06T06:40:17.836Z,2.10
2019-01-06T06:43:04.158Z,1.70
2019-01-06T06:45:50.311Z,2.00
2019-01-06T06:48:36.898Z,2.00
2019-01-06T06:51:25.430Z,2.20
2019-01-06T06:54:13.014Z,2.20
2019-01-06T06:57:29.719Z,1.93
2019-01-06T07:00:48.466Z,2.10
2019-01-06T07:03:54.591Z,2.10
2019-01-06T07:06:35.003Z,1.93
2019-01-06T07:09:28.359Z,2.33
2019-01-06T07:12:14.743Z,3.27
2019-01-06T07:15:08.484Z,3.07
2019-01-06T07:18:15.486Z,2.57
2019-01-06T07:21:14.297Z,2.30
2019-01-06T07:24:08.599Z,2.57
2019-01-06T07:26:55.101Z,2.63
2019-01-06T07:29:41.791Z,2.47
2019-01-06T07:32:41.742Z,2.50
2019-01-06T07:35:26.106Z,2.80
2019-01-06T07:38:12.595Z,2.53
2019-01-06T07:41:12.878Z,2.87
2019-01-06T07:43:54.331Z,2.83
2019-01-06T07:46:40.675Z,2.03
2019-01-06T07:49:40.754Z,2.63
2019-01-06T07:52:22.898Z,2.40
2019-01-06T07:55:00.867Z,1.77
2019-01-06T07:57:38.757Z,2.20
2019-01-06T08:00:25.459Z,1.93
2019-01-06T08:03:31.287Z,1.97
2019-01-06T08:06:17.457Z,2.17
2019-01-06T08:09:20.712Z,1.70
2019-01-06T08:12:11.962Z,2.00
2019-01-06T08:15:00.810Z,2.75
2019-01-06T08:17:57.366Z,1.87
2019-01-06T08:20:43.635Z,2.10
2019-01-06T08:23:23.840Z,1.87
2019-01-06T08:26:10.815Z,1.83
2019-01-06T08:28:58.022Z,1.40
2019-01-06T08:32:04.347Z,1.50
2019-01-06T08:34:53.432Z,1.70
2019-01-06T08:37:40.117Z,1.73
2019-01-06T08:40:26.286Z,1.27
2019-01-06T08:43:22.894Z,1.63
2019-01-06T08:46:20.206Z,1.50
2019-01-06T08:49:06.915Z,1.27
2019-01-06T08:51:53.401Z,2.03
2019-01-06T08:54:51.473Z,2.37
2019-01-06T08:57:32.337Z,2.33
2019-01-06T09:00:19.255Z,1.73
2019-01-06T09:03:05.592Z,1.60
2019-01-06T09:05:51.994Z,1.83
2019-01-06T09:08:49.374Z,1.87
2019-01-06T09:11:36.909Z,1.53
2019-01-06T09:14:18.173Z,1.50
2019-01-06T09:17:12.315Z,1.80
2019-01-06T09:19:56.554Z,1.50
2019-01-06T09:23:02.922Z,1.30
2019-01-06T09:25:49.569Z,1.80
2019-01-06T09:28:40.939Z,1.35
2019-01-06T09:31:28.750Z,1.37
2019-01-06T09:34:13.592Z,1.80
2019-01-06T09:37:00.430Z,1.57
2019-01-06T09:39:47.006Z,1.47
2019-01-06T09:42:37.978Z,1.23
2019-01-06T09:45:36.468Z,1.97
2019-01-06T09:48:26.965Z,1.80
2019-01-06T09:51:13.960Z,1.70
2019-01-06T09:54:00.185Z,1.10
2019-01-06T09:56:46.795Z,1.50
2019-01-06T09:59:36.410Z,1.53
2019-01-06T10:02:21.532Z,1.77
2019-01-06T10:05:05.814Z,1.27
2019-01-06T10:07:52.771Z,1.70
2019-01-06T10:10:49.772Z,1.37
2019-01-06T10:13:39.358Z,1.77
2019-01-06T10:16:28.918Z,1.13
2019-01-06T10:19:17.663Z,1.07
2019-01-06T10:22:02.194Z,1.10
2019-01-06T10:24:56.058Z,1.30
2019-01-06T10:27:42.515Z,1.47
2019-01-06T10:30:31.663Z,1.37
2019-01-06T10:33:19.829Z,1.07
2019-01-06T10:36:22.922Z,1.63
2019-01-06T10:39:09.754Z,1.20
2019-01-06T10:42:09.074Z,1.30
2019-01-06T10:44:58.136Z,1.87
2019-01-06T10:47:44.844Z,0.93
2019-01-06T10:50:31.367Z,1.00
2019-01-06T10:53:16.393Z,1.90
2019-01-06T10:55:57.275Z,1.40
2019-01-06T10:59:00.315Z,1.60
2019-01-06T11:01:49.176Z,1.30
2019-01-06T11:04:48.109Z,1.70
2019-01-06T11:07:27.949Z,1.60
2019-01-06T11:10:14.553Z,1.40
2019-01-06T11:13:01.039Z,1.30
2019-01-06T11:15:51.665Z,1.80
2019-01-06T11:18:39.746Z,1.42
2019-01-06T11:21:19.394Z,1.27
2019-01-06T11:24:03.919Z,1.10
2019-01-06T11:26:57.538Z,1.50
2019-01-06T11:29:43.946Z,1.57
2019-01-06T11:32:30.791Z,1.13
2019-01-06T11:35:10.288Z,5.03
2019-01-06T11:37:59.554Z,1.00
2019-01-06T11:40:53.719Z,2.00
2019-01-06T11:43:51.963Z,1.53
2019-01-06T11:46:35.250Z,1.10
2019-01-06T11:49:23.233Z,1.07
2019-01-06T11:52:15.975Z,0.97
2019-01-06T11:55:06.943Z,1.07
2019-01-06T11:58:04.592Z,1.00
2019-01-06T12:00:52.711Z,0.80
2019-01-06T12:03:49.641Z,1.07
2019-01-06T12:06:36.139Z,1.07
2019-01-06T12:09:36.891Z,0.90
2019-01-06T12:12:28.284Z,0.80
2019-01-06T12:15:16.561Z,1.20
2019-01-06T12:18:02.430Z,1.10
2019-01-06T12:20:55.238Z,1.30
2019-01-06T12:23:39.666Z,0.75
2019-01-06T12:26:26.412Z,1.60
2019-01-06T12:29:29.366Z,1.10
2019-01-06T12:32:17.432Z,1.17
2019-01-06T12:35:11.821Z,1.13
2019-01-06T12:38:10.921Z,0.33
2019-01-06T12:40:57.956Z,1.10
2019-01-06T12:43:50.881Z,0.80
2019-01-06T12:46:38.801Z,2.40
2019-01-06T12:49:25.345Z,1.43
2019-01-06T12:52:11.707Z,7.93
2019-01-06T12:54:53.939Z,1.60
2019-01-06T12:57:54.266Z,1.47
2019-01-06T13:00:40.665Z,1.27
2019-01-06T13:03:27.072Z,1.60
2019-01-06T13:06:15.821Z,1.23
2019-01-06T13:09:00.866Z,1.80
2019-01-06T13:11:56.635Z,0.80
2019-01-06T13:14:43.270Z,2.07
2019-01-06T13:17:22.983Z,1.17
2019-01-06T13:20:09.996Z,3.80
2019-01-06T13:22:57.582Z,1.47
2019-01-06T13:26:03.703Z,1.90
2019-01-06T13:28:57.807Z,1.83
2019-01-06T13:31:46.251Z,2.80
2019-01-06T13:34:40.256Z,3.10
2019-01-06T13:37:23.266Z,1.20
2019-01-06T13:40:19.350Z,2.07
2019-01-06T13:43:16.035Z,1.50
2019-01-06T13:46:14.531Z,1.47
2019-01-06T13:49:01.886Z,1.47
2019-01-06T13:52:02.718Z,2.17
2019-01-06T13:54:49.035Z,2.40
2019-01-06T13:57:46.477Z,1.80
2019-01-06T14:00:34.933Z,1.77
2019-01-06T14:03:24.072Z,1.93
2019-01-06T14:06:26.043Z,1.67
2019-01-06T14:09:14.461Z,1.65
2019-01-06T14:11:55.999Z,1.77
2019-01-06T14:14:42.358Z,1.63
2019-01-06T14:17:28.994Z,2.90
2019-01-06T14:20:21.193Z,2.30
2019-01-06T14:23:19.995Z,1.80
2019-01-06T14:26:07.950Z,2.27
2019-01-06T14:29:02.331Z,2.30
2019-01-06T14:31:48.835Z,1.87
2019-01-06T14:34:36.831Z,1.50
2019-01-06T14:37:23.179Z,2.30
2019-01-06T14:40:20.421Z,2.17
2019-01-06T14:43:12.510Z,2.93
2019-01-06T14:45:57.306Z,2.40
2019-01-06T14:48:43.810Z,2.87
2019-01-06T14:51:46.899Z,2.20
2019-01-06T14:54:31.977Z,2.20
2019-01-06T14:57:09.955Z,1.90
2019-01-06T14:59:55.131Z,1.80
2019-01-06T15:02:39.004Z,2.13
2019-01-06T15:05:27.188Z,1.63
2019-01-06T15:08:14.143Z,5.50
2019-01-06T15:11:09.502Z,2.80
2019-01-06T15:13:55.875Z,2.87
2019-01-06T15:16:49.487Z,1.90
2019-01-06T15:19:41.392Z,2.17
2019-01-06T15:22:47.131Z,2.40
2019-01-06T15:25:36.434Z,2.63
2019-01-06T15:28:31.494Z,4.27
2019-01-06T15:31:17.881Z,2.23
2019-01-06T15:34:05.922Z,2.03
2019-01-06T15:36:52.612Z,2.37
2019-01-06T15:39:37.797Z,2.00
2019-01-06T15:42:39.074Z,2.73
2019-01-06T15:45:29.095Z,2.70
2019-01-06T15:48:20.379Z,2.50
2019-01-06T15:51:06.812Z,3.40
2019-01-06T15:53:54.581Z,3.23
2019-01-06T15:56:41.242Z,3.17
2019-01-06T15:59:27.679Z,3.50
2019-01-06T16:02:16.320Z,2.65
2019-01-06T16:05:03.038Z,3.53
2019-01-06T16:07:49.628Z,3.30
2019-01-06T16:10:45.264Z,3.40
2019-01-06T16:13:31.546Z,3.93
2019-01-06T16:16:29.786Z,3.00
2019-01-06T16:19:09.792Z,3.23
2019-01-06T16:21:56.294Z,2.90
2019-01-06T16:24:47.587Z,3.33
2019-01-06T16:27:31.203Z,3.10
2019-01-06T16:30:19.358Z,3.93
2019-01-06T16:33:05.830Z,3.93
2019-01-06T16:35:55.579Z,4.10
2019-01-06T16:38:55.810Z,3.63
2019-01-06T16:41:43.659Z,3.33
2019-01-06T16:44:30.338Z,3.37
2019-01-06T16:47:20.055Z,3.03
2019-01-06T16:50:13.999Z,3.40
2019-01-06T16:53:05.892Z,3.23
2019-01-06T16:55:52.344Z,3.58
2019-01-06T16:58:45.326Z,2.90
2019-01-06T17:01:38.221Z,2.97
2019-01-06T17:04:24.657Z,3.00
2019-01-06T17:07:12.882Z,3.50
2019-01-06T17:10:00.583Z,3.20
2019-01-06T17:12:47.205Z,3.77
2019-01-06T17:15:37.026Z,3.80
2019-01-06T17:18:24.064Z,3.13
2019-01-06T17:21:10.978Z,3.53
2019-01-06T17:23:57.910Z,4.37
2019-01-06T17:26:44.203Z,3.50
2019-01-06T17:29:30.672Z,3.27
2019-01-06T17:32:30.911Z,5.93
2019-01-06T17:35:14.846Z,3.30
2019-01-06T17:37:56.870Z,4.40
2019-01-06T17:40:38.097Z,5.60
2019-01-06T17:43:26.229Z,3.93
2019-01-06T17:46:13.140Z,4.37
2019-01-06T17:49:00.174Z,3.43
2019-01-06T17:51:40.414Z,2.87
2019-01-06T17:54:31.339Z,3.43
2019-01-06T17:57:21.878Z,2.93
2019-01-06T18:00:08.691Z,3.20
2019-01-06T18:02:55.556Z,2.90
2019-01-06T18:05:45.282Z,3.40
2019-01-06T18:08:31.862Z,3.20
2019-01-06T18:11:17.958Z,3.30
2019-01-06T18:14:00.412Z,3.45
2019-01-06T18:16:49.450Z,3.90
2019-01-06T18:19:32.115Z,3.23
2019-01-06T18:22:18.678Z,4.17
2019-01-06T18:25:13.210Z,3.95
2019-01-06T18:27:56.420Z,3.63
2019-01-06T18:30:56.531Z,4.23
2019-01-06T18:33:52.887Z,7.30
2019-01-06T18:36:43.909Z,4.22
2019-01-06T18:39:39.459Z,4.63
2019-01-06T18:42:28.707Z,3.23
2019-01-06T18:45:28.795Z,4.03
2019-01-06T18:48:15.589Z,3.73
2019-01-06T18:51:08.110Z,4.70
2019-01-06T18:53:54.768Z,4.50
2019-01-06T18:57:00.904Z,4.03
2019-01-06T18:59:51.915Z,3.55
2019-01-06T19:02:39.737Z,4.40
2019-01-06T19:05:26.414Z,3.80
2019-01-06T19:08:22.309Z,5.30
2019-01-06T19:11:16.934Z,4.57
2019-01-06T19:14:17.213Z,3.60
2019-01-06T19:17:04.919Z,3.90
2019-01-06T19:19:55.833Z,3.27
2019-01-06T19:22:46.959Z,4.23
2019-01-06T19:25:43.659Z,3.97
2019-01-06T19:28:30.584Z,4.00
2019-01-06T19:31:30.507Z,3.90
2019-01-06T19:34:21.309Z,4.20
2019-01-06T19:37:09.197Z,4.40
2019-01-06T19:39:59.651Z,3.55
2019-01-06T19:42:54.600Z,4.53
2019-01-06T19:45:41.619Z,4.60
2019-01-06T19:48:35.615Z,4.17
2019-01-06T19:51:20.593Z,3.90
2019-01-06T19:54:08.648Z,4.17
2019-01-06T19:56:59.310Z,3.93
2019-01-06T19:59:58.918Z,3.83
2019-01-06T20:02:46.886Z,4.63
2019-01-06T20:05:49.758Z,3.57
2019-01-06T20:08:52.993Z,3.10
2019-01-06T20:11:39.753Z,3.97
2019-01-06T20:14:24.427Z,3.80
2019-01-06T20:17:10.313Z,3.27
2019-01-06T20:20:08.578Z,3.97
2019-01-06T20:23:00.509Z,3.57
2019-01-06T20:25:45.204Z,3.50
2019-01-06T20:28:31.754Z,4.10
2019-01-06T20:31:44.055Z,3.87
2019-01-06T20:34:23.557Z,3.67
2019-01-06T20:37:11.634Z,4.03
2019-01-06T20:40:02.503Z,3.93
2019-01-06T20:42:58.296Z,3.97
2019-01-06T20:45:43.738Z,3.50
2019-01-06T20:48:40.727Z,4.30
2019-01-06T20:51:27.046Z,4.30
2019-01-06T20:54:13.942Z,3.80
2019-01-06T20:57:08.017Z,3.70
2019-01-06T20:59:53.080Z,3.97
2019-01-06T21:02:42.747Z,4.27
2019-01-06T21:05:36.641Z,4.27
2019-01-06T21:08:17.531Z,4.27
2019-01-06T21:11:09.470Z,4.83
2019-01-06T21:13:55.731Z,4.70
2019-01-06T21:16:42.051Z,4.60
2019-01-06T21:19:28.302Z,5.20
2019-01-06T21:22:26.241Z,4.73
2019-01-06T21:25:22.382Z,5.10
2019-01-06T21:28:21.723Z,4.47
2019-01-06T21:31:11.472Z,4.40
2019-01-06T21:33:53.282Z,4.57
2019-01-06T21:36:45.170Z,4.53
2019-01-06T21:39:26.422Z,4.17
2019-01-06T21:42:13.930Z,5.10
2019-01-06T21:44:59.349Z,4.60
2019-01-06T21:48:02.833Z,4.70
2019-01-06T21:50:50.927Z,4.27
2019-01-06T21:53:53.552Z,5.10
2019-01-06T21:56:53.551Z,5.70
2019-01-06T21:59:48.604Z,5.30
2019-01-06T22:02:51.527Z,5.60
2019-01-06T22:05:31.381Z,5.30
2019-01-06T22:08:20.670Z,4.47
2019-01-06T22:11:12.581Z,5.40
2019-01-06T22:14:12.687Z,5.13
2019-01-06T22:17:00.604Z,5.10
2019-01-06T22:19:47.536Z,4.93
2019-01-06T22:22:34.137Z,4.60
2019-01-06T22:25:27.897Z,5.50
2019-01-06T22:28:22.389Z,5.33
2019-01-06T22:31:16.634Z,5.67
2019-01-06T22:34:02.542Z,4.67
2019-01-06T22:36:53.166Z,5.00
2019-01-06T22:39:46.166Z,4.93
2019-01-06T22:42:36.882Z,4.57
2019-01-06T22:45:23.634Z,5.47
2019-01-06T22:48:11.472Z,5.77
2019-01-06T22:50:57.226Z,5.43
2019-01-06T22:53:54.202Z,5.23
2019-01-06T22:56:40.799Z,5.47
2019-01-06T22:59:28.568Z,6.10
2019-01-06T23:02:14.869Z,5.60
2019-01-06T23:04:59.977Z,5.53
2019-01-06T23:07:55.105Z,5.37
2019-01-06T23:10:41.686Z,5.20
2019-01-06T23:13:20.816Z,4.83
2019-01-06T23:16:09.138Z,5.40
2019-01-06T23:19:09.017Z,5.80
2019-01-06T23:21:55.576Z,6.07
2019-01-06T23:24:40.400Z,4.80
2019-01-06T23:27:34.744Z,5.80
2019-01-06T23:30:27.199Z,4.97
2019-01-06T23:33:17.119Z,5.60
2019-01-06T23:36:03.759Z,4.43
2019-01-06T23:38:50.387Z,5.67
2019-01-06T23:41:36.813Z,5.20
2019-01-06T23:44:23.511Z,5.50
2019-01-06T23:47:05.390Z,4.80
2019-01-06T23:49:50.818Z,5.77
2019-01-06T23:52:51.057Z,5.40
2019-01-06T23:55:44.892Z,5.35
2019-01-06T23:58:31.778Z,5.70
